Time;durP1;ratioP1;P1;durP2;ratioP2;P2;SDS_P1;SDS_P2;PMS_P1;PMS_P2;Temp;Humidity;BMP_temperature;BMP_pressure;BME280_temperature;BME280_humidity;BME280_pressure;Samples;Min_cycle;Max_cycle;Signal;HPM_P1;HPM_P2
2022/03/07 00:01:49;;;;;;;3.03;1.73;;;;;;;;;;5037537;28;20120;-62
2022/03/07 00:04:16;;;;;;;3.05;1.30;;;;;;;;;;5034441;28;22030;-62
2022/03/07 00:06:42;;;;;;;3.92;1.17;;;;;;;;;;5035578;28;20041;-62
2022/03/07 00:09:20;;;;;;;3.65;1.70;;;;;;;;;;5039969;28;20083;-62
2022/03/07 00:11:48;;;;;;;6.05;1.52;;;;;;;;;;5043833;28;20040;-62
2022/03/07 00:14:13;;;;;;;4.88;1.65;;;;;;;;;;5038579;28;20037;-62
2022/03/07 00:16:39;;;;;;;2.75;1.60;;;;;;;;;;5044654;28;20036;-62
2022/03/07 00:19:09;;;;;;;6.63;2.67;;;;;;;;;;5040254;28;20353;-62
2022/03/07 00:21:37;;;;;;;5.53;2.85;;;;;;;;;;5036333;28;20809;-62
2022/03/07 00:24:04;;;;;;;11.57;2.92;;;;;;;;;;5039155;28;20028;-62
2022/03/07 00:26:32;;;;;;;8.82;2.47;;;;;;;;;;5025057;28;20037;-63
2022/03/07 00:28:58;;;;;;;9.00;1.70;;;;;;;;;;5041730;28;20032;-62
2022/03/07 00:31:25;;;;;;;2.85;1.98;;;;;;;;;;5023420;28;20044;-62
2022/03/07 00:33:52;;;;;;;1.63;0.85;;;;;;;;;;5039003;28;20040;-63
2022/03/07 00:36:18;;;;;;;2.97;1.17;;;;;;;;;;5036198;28;20033;-63
2022/03/07 00:38:46;;;;;;;2.67;1.50;;;;;;;;;;5036825;28;20040;-62
2022/03/07 00:41:14;;;;;;;2.90;1.65;;;;;;;;;;5036899;28;20063;-62
2022/03/07 00:43:40;;;;;;;1.25;1.20;;;;;;;;;;5038778;28;20027;-61
2022/03/07 00:46:06;;;;;;;1.55;1.33;;;;;;;;;;5037057;28;20095;-62
2022/03/07 00:52:07;;;;;;;5.85;1.40;;;;;;;;;;5037748;28;22160;-61
2022/03/07 00:54:32;;;;;;;3.45;1.45;;;;;;;;;;5039358;28;20051;-64
2022/03/07 00:56:58;;;;;;;2.03;0.82;;;;;;;;;;5038074;28;20047;-62
2022/03/07 00:59:26;;;;;;;1.90;1.30;;;;;;;;;;5038300;28;20012;-63
2022/03/07 01:01:52;;;;;;;4.43;2.10;;;;;;;;;;5037490;28;20032;-63
2022/03/07 01:04:17;;;;;;;8.07;1.95;;;;;;;;;;5038136;28;20427;-63
2022/03/07 01:06:46;;;;;;;4.43;1.30;;;;;;;;;;5045211;28;20120;-63
2022/03/07 01:09:11;;;;;;;4.10;1.45;;;;;;;;;;5038651;28;20879;-63
2022/03/07 01:11:37;;;;;;;1.75;1.20;;;;;;;;;;5038500;28;20070;-64
2022/03/07 01:14:02;;;;;;;1.52;1.15;;;;;;;;;;5037304;28;20045;-62
2022/03/07 01:16:28;;;;;;;0.75;0.75;;;;;;;;;;5039932;28;20049;-61
2022/03/07 01:18:54;;;;;;;2.05;0.85;;;;;;;;;;5038207;28;20177;-62
2022/03/07 01:21:20;;;;;;;4.32;1.17;;;;;;;;;;5037188;28;20040;-63
2022/03/07 01:23:47;;;;;;;4.10;1.20;;;;;;;;;;5026010;28;20065;-62
2022/03/07 01:26:12;;;;;;;3.67;1.13;;;;;;;;;;5036407;28;20407;-63
2022/03/07 01:28:37;;;;;;;2.60;1.52;;;;;;;;;;5034547;28;20431;-63
2022/03/07 01:31:03;;;;;;;1.42;1.27;;;;;;;;;;5037414;28;20057;-63
2022/03/07 01:33:29;;;;;;;1.10;1.00;;;;;;;;;;5027780;28;20431;-63
2022/03/07 01:35:55;;;;;;;1.67;1.08;;;;;;;;;;5038597;28;20566;-63
2022/03/07 01:38:20;;;;;;;0.80;0.50;;;;;;;;;;5036098;28;20043;-62
2022/03/07 01:40:46;;;;;;;2.67;1.55;;;;;;;;;;5041843;28;20056;-62
2022/03/07 01:43:11;;;;;;;1.13;1.02;;;;;;;;;;5041614;28;20025;-64
2022/03/07 01:45:41;;;;;;;2.53;1.30;;;;;;;;;;5035769;28;20078;-64
2022/03/07 01:48:07;;;;;;;2.47;1.00;;;;;;;;;;5038745;28;20060;-65
2022/03/07 01:50:33;;;;;;;3.00;1.35;;;;;;;;;;5022360;28;20375;-63
2022/03/07 01:52:59;;;;;;;2.63;1.05;;;;;;;;;;5037479;28;20981;-64
2022/03/07 01:55:25;;;;;;;2.25;0.93;;;;;;;;;;5038865;28;20037;-63
2022/03/07 01:57:52;;;;;;;2.42;1.40;;;;;;;;;;5036912;28;20646;-63
2022/03/07 02:00:22;;;;;;;8.20;1.70;;;;;;;;;;5038088;28;20031;-63
2022/03/07 02:02:48;;;;;;;2.67;1.25;;;;;;;;;;5036268;28;20465;-63
2022/03/07 02:05:14;;;;;;;2.83;1.27;;;;;;;;;;5034922;28;20456;-64
2022/03/07 02:07:41;;;;;;;1.48;1.17;;;;;;;;;;5038995;28;20036;-65
2022/03/07 02:13:13;;;;;;;1.27;1.02;;;;;;;;;;5016311;22;20093;-65
2022/03/07 02:15:39;;;;;;;1.52;1.42;;;;;;;;;;4971108;28;20033;-65
2022/03/07 02:18:05;;;;;;;0.90;0.90;;;;;;;;;;4971807;28;20828;-64
2022/03/07 02:20:31;;;;;;;0.90;0.90;;;;;;;;;;4975929;28;20134;-64
2022/03/07 02:22:56;;;;;;;1.38;1.00;;;;;;;;;;4975364;28;20053;-65
2022/03/07 02:28:58;;;;;;;2.33;1.15;;;;;;;;;;4973305;28;20076;-63
2022/03/07 02:31:24;;;;;;;2.25;1.00;;;;;;;;;;4991424;28;20030;-64
2022/03/07 02:33:52;;;;;;;1.40;1.30;;;;;;;;;;4976762;28;20029;-63
2022/03/07 02:39:54;;;;;;;1.55;1.45;;;;;;;;;;4974744;28;20064;-63
2022/03/07 02:42:20;;;;;;;4.60;1.48;;;;;;;;;;4975239;28;20096;-66
2022/03/07 02:44:46;;;;;;;1.02;1.02;;;;;;;;;;4960866;28;20465;-64
2022/03/07 02:47:14;;;;;;;5.82;0.90;;;;;;;;;;4975475;28;20034;-64
2022/03/07 02:49:39;;;;;;;4.63;1.17;;;;;;;;;;4975833;28;20084;-64
2022/03/07 02:52:06;;;;;;;2.92;1.20;;;;;;;;;;4990150;28;20022;-64
2022/03/07 02:54:33;;;;;;;1.63;1.17;;;;;;;;;;4976088;28;21905;-65
2022/03/07 02:56:58;;;;;;;1.30;1.20;;;;;;;;;;4957248;28;20037;-65
2022/03/07 02:59:24;;;;;;;6.75;1.38;;;;;;;;;;4976624;28;20034;-65
2022/03/07 03:01:50;;;;;;;1.80;1.42;;;;;;;;;;4975385;28;20072;-65
2022/03/07 03:04:16;;;;;;;3.63;1.15;;;;;;;;;;4977464;28;20030;-65
2022/03/07 03:06:42;;;;;;;2.50;1.00;;;;;;;;;;4990156;28;20034;-65
2022/03/07 03:09:08;;;;;;;1.27;0.93;;;;;;;;;;4976138;28;20030;-65
2022/03/07 03:11:33;;;;;;;4.22;1.17;;;;;;;;;;4975291;28;20053;-65
2022/03/07 03:14:00;;;;;;;2.90;1.35;;;;;;;;;;4989589;28;20030;-65
2022/03/07 03:16:28;;;;;;;1.02;0.90;;;;;;;;;;4974905;28;22289;-66
2022/03/07 03:18:53;;;;;;;2.15;1.08;;;;;;;;;;4975769;28;20042;-66
2022/03/07 03:21:20;;;;;;;0.90;0.90;;;;;;;;;;4978086;28;20049;-66
2022/03/07 03:23:46;;;;;;;1.70;1.20;;;;;;;;;;4975561;28;20030;-66
2022/03/07 03:26:12;;;;;;;1.85;1.20;;;;;;;;;;4965840;28;20131;-65
2022/03/07 03:28:38;;;;;;;1.13;1.02;;;;;;;;;;4976332;28;20042;-65
2022/03/07 03:31:04;;;;;;;1.60;1.23;;;;;;;;;;4974634;28;20062;-66
2022/03/07 03:33:29;;;;;;;1.48;1.38;;;;;;;;;;4958848;28;20117;-65
2022/03/07 03:35:55;;;;;;;5.35;2.03;;;;;;;;;;4971017;28;20605;-65
2022/03/07 03:38:20;;;;;;;15.75;1.67;;;;;;;;;;4975775;28;20036;-65
2022/03/07 03:40:46;;;;;;;2.22;1.02;;;;;;;;;;4975082;28;22017;-65
2022/03/07 03:43:14;;;;;;;1.65;1.00;;;;;;;;;;4975547;28;20040;-65
2022/03/07 03:45:40;;;;;;;0.90;0.77;;;;;;;;;;4974610;28;20042;-65
2022/03/07 03:48:06;;;;;;;1.90;1.13;;;;;;;;;;4973600;28;20022;-65
2022/03/07 03:50:34;;;;;;;3.20;1.40;;;;;;;;;;4988975;28;22249;-65
2022/03/07 03:53:02;;;;;;;6.18;1.40;;;;;;;;;;4972292;28;20109;-65
2022/03/07 03:55:28;;;;;;;2.88;1.13;;;;;;;;;;4974166;28;20057;-66
2022/03/07 03:57:53;;;;;;;4.72;1.65;;;;;;;;;;4973096;28;20757;-65
2022/03/07 04:00:19;;;;;;;4.60;2.33;;;;;;;;;;4970943;28;20058;-65
2022/03/07 04:02:46;;;;;;;2.78;1.35;;;;;;;;;;4957269;28;20057;-66
2022/03/07 04:05:12;;;;;;;1.95;1.08;;;;;;;;;;4973855;28;20049;-67
2022/03/07 04:07:38;;;;;;;1.45;1.30;;;;;;;;;;4975513;28;20046;-65
2022/03/07 04:10:04;;;;;;;1.80;1.38;;;;;;;;;;4975745;28;20026;-64
2022/03/07 04:12:29;;;;;;;1.88;1.15;;;;;;;;;;4971189;28;20107;-66
2022/03/07 04:14:55;;;;;;;1.55;1.30;;;;;;;;;;4988277;28;20022;-66
2022/03/07 04:17:20;;;;;;;1.95;1.23;;;;;;;;;;4971235;28;20484;-64
2022/03/07 04:19:46;;;;;;;2.00;1.25;;;;;;;;;;4973606;28;20122;-65
2022/03/07 04:22:12;;;;;;;1.23;1.15;;;;;;;;;;4973526;28;21976;-66
2022/03/07 04:24:39;;;;;;;4.05;1.17;;;;;;;;;;4986601;28;20042;-65
2022/03/07 04:27:05;;;;;;;2.17;1.00;;;;;;;;;;4973891;28;20040;-64
2022/03/07 04:29:30;;;;;;;3.03;1.30;;;;;;;;;;4971177;28;22895;-65
2022/03/07 04:31:56;;;;;;;1.70;1.05;;;;;;;;;;4961402;28;20158;-65
2022/03/07 04:34:22;;;;;;;1.13;1.02;;;;;;;;;;4957380;28;20441;-65
2022/03/07 04:36:51;;;;;;;1.42;1.27;;;;;;;;;;4973906;28;20573;-65
2022/03/07 04:39:17;;;;;;;3.33;1.50;;;;;;;;;;4971213;28;20040;-65
2022/03/07 04:41:44;;;;;;;2.50;1.35;;;;;;;;;;4970888;28;20034;-67
2022/03/07 04:44:10;;;;;;;5.10;1.50;;;;;;;;;;4972463;28;20973;-65
2022/03/07 04:46:38;;;;;;;1.20;1.10;;;;;;;;;;4988047;28;20041;-65
2022/03/07 04:49:10;;;;;;;2.70;1.35;;;;;;;;;;4977745;28;21312;-67
2022/03/07 04:51:39;;;;;;;2.55;1.67;;;;;;;;;;4973010;28;20108;-64
2022/03/07 04:54:05;;;;;;;1.55;1.35;;;;;;;;;;4977692;28;20030;-67
2022/03/07 04:56:31;;;;;;;5.15;1.60;;;;;;;;;;4972936;28;20026;-66
2022/03/07 04:58:59;;;;;;;2.78;1.73;;;;;;;;;;4942231;28;20152;-64
2022/03/07 05:01:25;;;;;;;2.03;1.10;;;;;;;;;;4987519;28;20543;-65
2022/03/07 05:03:53;;;;;;;2.13;1.50;;;;;;;;;;4975182;28;20033;-66
2022/03/07 05:06:20;;;;;;;1.90;1.20;;;;;;;;;;4991975;28;20112;-65
2022/03/07 05:08:46;;;;;;;2.35;1.50;;;;;;;;;;4974482;28;20035;-65
2022/03/07 05:11:11;;;;;;;1.27;1.10;;;;;;;;;;4973122;28;20112;-64
2022/03/07 05:13:37;;;;;;;6.07;1.58;;;;;;;;;;4955660;28;21364;-66
2022/03/07 05:16:05;;;;;;;4.18;1.50;;;;;;;;;;4971465;28;20046;-65
2022/03/07 05:18:31;;;;;;;2.05;1.52;;;;;;;;;;4970697;28;20034;-65
2022/03/07 05:21:01;;;;;;;2.85;1.67;;;;;;;;;;4971263;28;20085;-66
2022/03/07 05:23:29;;;;;;;2.38;1.40;;;;;;;;;;4956307;28;20038;-66
2022/03/07 05:25:57;;;;;;;3.45;0.85;;;;;;;;;;4954381;28;20042;-66
2022/03/07 05:28:27;;;;;;;4.20;1.40;;;;;;;;;;4957269;28;20049;-67
2022/03/07 05:30:53;;;;;;;4.97;1.40;;;;;;;;;;4974126;28;20036;-66
2022/03/07 05:33:19;;;;;;;2.50;1.58;;;;;;;;;;4972599;28;20042;-66
2022/03/07 05:35:45;;;;;;;5.50;1.70;;;;;;;;;;4975350;28;20042;-64
2022/03/07 05:38:13;;;;;;;1.33;1.08;;;;;;;;;;4955685;28;20026;-65
2022/03/07 05:40:41;;;;;;;7.22;1.35;;;;;;;;;;4975907;28;21109;-65
2022/03/07 05:43:07;;;;;;;1.77;1.10;;;;;;;;;;4957961;28;20038;-65
2022/03/07 05:45:35;;;;;;;2.60;1.70;;;;;;;;;;4976004;28;20116;-66
2022/03/07 05:48:01;;;;;;;10.90;1.33;;;;;;;;;;4988594;28;20544;-65
2022/03/07 05:50:26;;;;;;;1.23;1.13;;;;;;;;;;4974029;28;20044;-66
2022/03/07 05:52:52;;;;;;;1.17;1.08;;;;;;;;;;4976144;28;20049;-65
2022/03/07 05:55:22;;;;;;;2.85;1.63;;;;;;;;;;4974246;28;20172;-65
2022/03/07 05:57:48;;;;;;;5.30;1.35;;;;;;;;;;4988926;28;20046;-65
2022/03/07 06:00:18;;;;;;;3.10;1.88;;;;;;;;;;4973606;28;20037;-64
2022/03/07 06:02:46;;;;;;;5.18;1.85;;;;;;;;;;4974788;28;20614;-66
2022/03/07 06:05:11;;;;;;;1.10;1.00;;;;;;;;;;4972365;28;20022;-65
2022/03/07 06:07:42;;;;;;;1.58;0.95;;;;;;;;;;4973698;28;20827;-66
2022/03/07 06:10:07;;;;;;;4.82;1.25;;;;;;;;;;4958631;28;20133;-63
2022/03/07 06:12:36;;;;;;;1.50;1.40;;;;;;;;;;4973439;28;20069;-65
2022/03/07 06:15:05;;;;;;;2.00;1.50;;;;;;;;;;4957286;28;20042;-65
2022/03/07 06:17:31;;;;;;;2.00;1.30;;;;;;;;;;4977502;28;20057;-65
2022/03/07 06:19:57;;;;;;;2.90;1.52;;;;;;;;;;4975718;28;20026;-65
2022/03/07 06:22:38;;;;;;;1.60;1.25;;;;;;;;;;4975724;28;20093;-64
2022/03/07 06:25:03;;;;;;;6.53;1.85;;;;;;;;;;4975379;28;20060;-65
2022/03/07 06:27:31;;;;;;;7.55;2.30;;;;;;;;;;4971331;28;20586;-65
2022/03/07 06:29:59;;;;;;;3.55;1.90;;;;;;;;;;4959690;28;20049;-64
2022/03/07 06:32:25;;;;;;;5.05;2.08;;;;;;;;;;4973731;28;20429;-65
2022/03/07 06:34:50;;;;;;;6.03;2.00;;;;;;;;;;4974183;28;20023;-66
2022/03/07 06:37:18;;;;;;;4.22;2.90;;;;;;;;;;4974521;28;20026;-66
2022/03/07 06:39:44;;;;;;;5.50;1.65;;;;;;;;;;4975188;28;20628;-65
2022/03/07 06:42:12;;;;;;;4.05;2.00;;;;;;;;;;4956545;28;20029;-65
2022/03/07 06:44:39;;;;;;;3.28;2.00;;;;;;;;;;4976000;28;20050;-64
2022/03/07 06:47:08;;;;;;;2.45;2.13;;;;;;;;;;4975821;28;20031;-66
2022/03/07 06:49:34;;;;;;;1.80;1.70;;;;;;;;;;4986964;28;20657;-67
2022/03/07 06:52:00;;;;;;;9.27;2.33;;;;;;;;;;4960960;28;20044;-66
2022/03/07 06:54:28;;;;;;;8.70;3.03;;;;;;;;;;4973864;28;20515;-66
2022/03/07 06:56:56;;;;;;;3.30;2.20;;;;;;;;;;4973414;28;20036;-67
2022/03/07 06:59:21;;;;;;;7.57;2.40;;;;;;;;;;4973668;28;20030;-66
2022/03/07 07:01:51;;;;;;;3.28;2.03;;;;;;;;;;4973940;28;20042;-68
2022/03/07 07:04:19;;;;;;;2.47;1.83;;;;;;;;;;4957464;28;20042;-68
2022/03/07 07:06:47;;;;;;;11.60;2.35;;;;;;;;;;4976998;28;20150;-67
2022/03/07 07:09:14;;;;;;;9.43;1.88;;;;;;;;;;4976150;28;20073;-65
2022/03/07 07:11:40;;;;;;;8.00;2.47;;;;;;;;;;4975090;28;20056;-66
2022/03/07 07:14:05;;;;;;;4.93;2.45;;;;;;;;;;4973026;28;20113;-66
2022/03/07 07:16:31;;;;;;;4.22;2.17;;;;;;;;;;4976773;28;20477;-66
2022/03/07 07:18:57;;;;;;;4.65;2.00;;;;;;;;;;4977462;28;20765;-65
2022/03/07 07:21:22;;;;;;;5.03;2.03;;;;;;;;;;4948140;28;20093;-64
2022/03/07 07:23:50;;;;;;;2.92;1.67;;;;;;;;;;4977596;28;20030;-64
2022/03/07 07:26:16;;;;;;;6.57;2.03;;;;;;;;;;4976535;28;20034;-65
2022/03/07 07:28:42;;;;;;;4.47;2.33;;;;;;;;;;4976227;28;20034;-63
2022/03/07 07:31:07;;;;;;;4.95;2.15;;;;;;;;;;4961343;28;20089;-64
2022/03/07 07:33:36;;;;;;;4.72;2.03;;;;;;;;;;4977048;28;20168;-65
2022/03/07 07:36:02;;;;;;;8.77;2.28;;;;;;;;;;4978406;28;20157;-64
2022/03/07 07:38:28;;;;;;;4.90;2.38;;;;;;;;;;4975833;28;20049;-66
2022/03/07 07:40:55;;;;;;;5.10;2.17;;;;;;;;;;4958321;28;20061;-66
2022/03/07 07:43:21;;;;;;;6.20;1.92;;;;;;;;;;4976130;28;20057;-66
2022/03/07 07:45:47;;;;;;;2.58;2.00;;;;;;;;;;4975545;28;20026;-66
2022/03/07 07:48:13;;;;;;;5.53;2.15;;;;;;;;;;4974533;28;20042;-66
2022/03/07 07:50:39;;;;;;;10.70;1.98;;;;;;;;;;4974535;28;20048;-64
2022/03/07 07:53:06;;;;;;;7.57;2.72;;;;;;;;;;4960652;28;20018;-64
2022/03/07 07:55:32;;;;;;;3.03;1.60;;;;;;;;;;4977956;28;20493;-66
2022/03/07 07:57:57;;;;;;;2.58;1.70;;;;;;;;;;4975229;28;20032;-65
2022/03/07 08:00:23;;;;;;;3.60;1.63;;;;;;;;;;4978336;28;20023;-63
2022/03/07 08:02:49;;;;;;;6.25;1.52;;;;;;;;;;4992550;28;20034;-63
2022/03/07 08:05:18;;;;;;;5.63;1.90;;;;;;;;;;4975584;28;20034;-64
2022/03/07 08:07:44;;;;;;;2.95;1.25;;;;;;;;;;4977550;28;20137;-64
2022/03/07 08:10:11;;;;;;;3.47;1.80;;;;;;;;;;4961986;28;20037;-64
2022/03/07 08:16:27;;;;;;;6.55;1.55;;;;;;;;;;4976560;28;20718;-64
2022/03/07 08:18:57;;;;;;;5.57;1.73;;;;;;;;;;4975506;28;20044;-63
2022/03/07 08:21:25;;;;;;;2.55;1.38;;;;;;;;;;4976772;28;20560;-63
2022/03/07 08:23:56;;;;;;;4.60;1.33;;;;;;;;;;4975683;28;20378;-63
2022/03/07 08:26:23;;;;;;;1.17;0.73;;;;;;;;;;4975097;28;20209;-63
2022/03/07 08:28:49;;;;;;;4.15;1.52;;;;;;;;;;4974769;28;20060;-63
2022/03/07 08:31:17;;;;;;;1.60;0.90;;;;;;;;;;4964102;28;20129;-62
2022/03/07 08:33:45;;;;;;;0.70;0.63;;;;;;;;;;4975303;28;20019;-62
2022/03/07 08:36:10;;;;;;;2.38;1.00;;;;;;;;;;4973036;28;20038;-61
2022/03/07 08:38:41;;;;;;;5.28;0.10;;;;;;;;;;4975216;28;20089;-61
2022/03/07 08:41:11;;;;;;;0.00;0.00;;;;;;;;;;4975944;28;20038;-61
2022/03/07 08:43:37;;;;;;;0.10;0.10;;;;;;;;;;4972420;28;20576;-61
2022/03/07 08:46:07;;;;;;;0.00;0.00;;;;;;;;;;4943702;28;20069;-61
2022/03/07 08:48:35;;;;;;;0.10;0.10;;;;;;;;;;4974323;28;20030;-61
2022/03/07 08:51:03;;;;;;;0.52;0.35;;;;;;;;;;4973997;28;20034;-61
2022/03/07 08:53:29;;;;;;;0.28;0.28;;;;;;;;;;4975612;28;20862;-62
2022/03/07 08:55:59;;;;;;;0.00;0.00;;;;;;;;;;4976850;28;20026;-61
2022/03/07 08:58:27;;;;;;;0.00;0.00;;;;;;;;;;4972743;28;20034;-61
2022/03/07 09:00:58;;;;;;;0.10;0.10;;;;;;;;;;4975491;28;20041;-60
2022/03/07 09:03:23;;;;;;;0.00;0.00;;;;;;;;;;4977051;28;20612;-60
2022/03/07 09:05:49;;;;;;;0.00;0.00;;;;;;;;;;4975583;28;20041;-61
2022/03/07 09:08:15;;;;;;;0.00;0.00;;;;;;;;;;4943353;28;20038;-61
2022/03/07 09:10:42;;;;;;;0.10;0.10;;;;;;;;;;4973723;28;20034;-61
2022/03/07 09:13:08;;;;;;;0.00;0.00;;;;;;;;;;4956970;28;20042;-61
2022/03/07 09:15:34;;;;;;;0.00;0.00;;;;;;;;;;4972939;28;20034;-59
2022/03/07 09:18:02;;;;;;;0.00;0.00;;;;;;;;;;4976281;28;20114;-60
2022/03/07 09:20:30;;;;;;;0.17;0.17;;;;;;;;;;4973932;28;20038;-60
2022/03/07 09:22:58;;;;;;;0.00;0.00;;;;;;;;;;4959759;28;20038;-61
2022/03/07 09:25:23;;;;;;;0.00;0.00;;;;;;;;;;4973369;28;20038;-60
2022/03/07 09:27:51;;;;;;;0.00;0.00;;;;;;;;;;4974120;28;20038;-60
2022/03/07 09:30:19;;;;;;;0.00;0.00;;;;;;;;;;4973969;28;20335;-61
2022/03/07 09:32:44;;;;;;;0.00;0.00;;;;;;;;;;4959252;28;20441;-62
2022/03/07 09:35:10;;;;;;;0.10;0.05;;;;;;;;;;4969426;28;20038;-60
2022/03/07 09:37:35;;;;;;;0.00;0.00;;;;;;;;;;4974527;28;20034;-61
2022/03/07 09:40:02;;;;;;;0.10;0.10;;;;;;;;;;4973996;28;20045;-61
2022/03/07 09:42:33;;;;;;;0.00;0.00;;;;;;;;;;4972673;28;20160;-62
2022/03/07 09:44:59;;;;;;;0.00;0.00;;;;;;;;;;4972746;28;20036;-63
2022/03/07 09:47:25;;;;;;;0.00;0.00;;;;;;;;;;4973754;28;20068;-61
2022/03/07 09:49:51;;;;;;;0.00;0.00;;;;;;;;;;4975905;28;20030;-61
2022/03/07 09:52:20;;;;;;;0.00;0.00;;;;;;;;;;4972749;28;20112;-62
2022/03/07 09:54:46;;;;;;;0.10;0.10;;;;;;;;;;4972832;28;20099;-62
2022/03/07 09:57:13;;;;;;;0.10;0.00;;;;;;;;;;4960614;28;20877;-63
2022/03/07 09:59:44;;;;;;;0.00;0.00;;;;;;;;;;4969637;28;20034;-62
2022/03/07 10:02:14;;;;;;;0.00;0.00;;;;;;;;;;4974961;28;20922;-61
2022/03/07 10:04:40;;;;;;;0.00;0.00;;;;;;;;;;4972674;28;20037;-61
2022/03/07 10:07:09;;;;;;;0.05;0.00;;;;;;;;;;4973183;28;20117;-61
2022/03/07 10:09:40;;;;;;;0.00;0.00;;;;;;;;;;4970915;28;20601;-62
2022/03/07 10:12:06;;;;;;;0.00;0.00;;;;;;;;;;4950482;28;20121;-62
2022/03/07 10:14:42;;;;;;;0.00;0.00;;;;;;;;;;4971750;28;20042;-63
2022/03/07 10:17:19;;;;;;;0.40;0.40;;;;;;;;;;4976177;28;20594;-62
2022/03/07 10:19:49;;;;;;;0.13;0.13;;;;;;;;;;4972159;28;20036;-62
2022/03/07 10:22:22;;;;;;;0.00;0.00;;;;;;;;;;4987942;28;20682;-63
2022/03/07 10:24:57;;;;;;;0.52;0.20;;;;;;;;;;4988311;28;20034;-63
2022/03/07 10:27:29;;;;;;;0.10;0.10;;;;;;;;;;4972299;28;20041;-64
2022/03/07 10:29:57;;;;;;;0.00;0.00;;;;;;;;;;4971331;28;20031;-61
2022/03/07 10:32:23;;;;;;;0.00;0.00;;;;;;;;;;4972775;28;20072;-62
2022/03/07 10:34:53;;;;;;;0.00;0.00;;;;;;;;;;4972856;28;20046;-63
2022/03/07 10:37:30;;;;;;;0.00;0.00;;;;;;;;;;4975442;28;20038;-64
2022/03/07 10:40:03;;;;;;;0.00;0.00;;;;;;;;;;4974284;28;20037;-64
2022/03/07 10:42:34;;;;;;;1.02;0.40;;;;;;;;;;4961960;28;20100;-64
2022/03/07 10:45:04;;;;;;;0.00;0.00;;;;;;;;;;4978015;28;20022;-64
2022/03/07 10:47:30;;;;;;;0.00;0.00;;;;;;;;;;4977028;28;20033;-64
2022/03/07 10:49:59;;;;;;;0.00;0.00;;;;;;;;;;4974148;28;20089;-64
2022/03/07 10:52:25;;;;;;;0.00;0.00;;;;;;;;;;4978304;28;20030;-65
2022/03/07 10:54:51;;;;;;;3.15;1.38;;;;;;;;;;4975760;28;20125;-65
2022/03/07 10:57:22;;;;;;;0.00;0.00;;;;;;;;;;4976680;28;21132;-65
2022/03/07 10:59:50;;;;;;;0.00;0.00;;;;;;;;;;4946388;28;20461;-63
2022/03/07 11:02:21;;;;;;;0.10;0.10;;;;;;;;;;4975472;28;20342;-65
2022/03/07 11:04:50;;;;;;;0.00;0.00;;;;;;;;;;4975377;28;20031;-63
2022/03/07 11:07:18;;;;;;;0.10;0.00;;;;;;;;;;4971036;28;20109;-64
2022/03/07 11:09:46;;;;;;;0.00;0.00;;;;;;;;;;4975262;28;20030;-64
2022/03/07 11:12:19;;;;;;;0.00;0.00;;;;;;;;;;4958686;28;21015;-64
2022/03/07 11:14:50;;;;;;;0.68;0.20;;;;;;;;;;4990653;28;20104;-64
2022/03/07 11:17:17;;;;;;;0.00;0.00;;;;;;;;;;4976550;28;20325;-64
2022/03/07 11:19:45;;;;;;;0.20;0.20;;;;;;;;;;4975675;28;20034;-64
2022/03/07 11:22:11;;;;;;;0.00;0.00;;;;;;;;;;4988995;28;20109;-64
2022/03/07 11:24:40;;;;;;;0.00;0.00;;;;;;;;;;4959827;28;20034;-64
2022/03/07 11:27:08;;;;;;;0.03;0.03;;;;;;;;;;4970501;28;20053;-64
2022/03/07 11:29:35;;;;;;;0.10;0.10;;;;;;;;;;4972103;28;20038;-64
2022/03/07 11:32:14;;;;;;;0.63;0.22;;;;;;;;;;4976243;28;20110;-64
2022/03/07 11:34:59;;;;;;;1.63;0.75;;;;;;;;;;4974999;28;20060;-64
2022/03/07 11:37:30;;;;;;;1.58;0.60;;;;;;;;;;4971886;28;20180;-62
2022/03/07 11:39:58;;;;;;;1.30;0.40;;;;;;;;;;4957299;28;20195;-64
2022/03/07 11:42:37;;;;;;;2.92;0.82;;;;;;;;;;4973066;28;20084;-61
2022/03/07 11:45:06;;;;;;;4.20;0.80;;;;;;;;;;4988263;28;20087;-62
2022/03/07 11:47:35;;;;;;;2.90;0.47;;;;;;;;;;4974779;28;20133;-64
2022/03/07 11:50:01;;;;;;;2.13;0.60;;;;;;;;;;4975455;28;20153;-63
2022/03/07 11:52:29;;;;;;;2.53;0.80;;;;;;;;;;4974523;28;20050;-62
2022/03/07 11:55:01;;;;;;;3.13;0.85;;;;;;;;;;4970756;28;20049;-63
2022/03/07 11:57:40;;;;;;;10.05;1.20;;;;;;;;;;4963220;28;20080;-63
2022/03/07 12:00:31;;;;;;;3.38;0.90;;;;;;;;;;4990292;28;20030;-63
2022/03/07 12:03:10;;;;;;;1.70;0.80;;;;;;;;;;4977065;28;20045;-63
2022/03/07 12:05:38;;;;;;;1.42;0.60;;;;;;;;;;4971941;28;20998;-63
2022/03/07 12:08:13;;;;;;;1.45;0.50;;;;;;;;;;4974465;28;20177;-63
2022/03/07 12:11:06;;;;;;;1.63;0.75;;;;;;;;;;4974009;28;20030;-63
2022/03/07 12:13:33;;;;;;;3.25;0.80;;;;;;;;;;4972000;28;20147;-63
2022/03/07 12:15:59;;;;;;;1.27;0.52;;;;;;;;;;4973840;28;20042;-63
2022/03/07 12:18:25;;;;;;;1.05;0.75;;;;;;;;;;4973409;28;20046;-63
2022/03/07 12:20:55;;;;;;;1.20;0.55;;;;;;;;;;4975089;28;20030;-63
2022/03/07 12:23:22;;;;;;;1.92;0.50;;;;;;;;;;4986662;28;20038;-62
2022/03/07 12:25:56;;;;;;;2.78;0.70;;;;;;;;;;4973480;28;20030;-63
2022/03/07 12:28:23;;;;;;;;;;;;;;;;;;4975103;28;20037;-63
2022/03/07 12:30:53;;;;;;;0.63;0.27;;;;;;;;;;4972218;28;19922;-63
2022/03/07 12:33:19;;;;;;;2.05;0.60;;;;;;;;;;4973817;28;21643;-62
2022/03/07 12:35:45;;;;;;;1.55;0.40;;;;;;;;;;4974259;28;20990;-62
2022/03/07 12:38:15;;;;;;;1.48;0.40;;;;;;;;;;4970774;28;20629;-62
2022/03/07 12:40:40;;;;;;;1.92;0.60;;;;;;;;;;4966677;28;21921;-62
2022/03/07 12:43:08;;;;;;;1.42;0.45;;;;;;;;;;4971154;28;20029;-62
2022/03/07 12:45:42;;;;;;;1.67;0.63;;;;;;;;;;4973683;28;20088;-62
2022/03/07 12:48:08;;;;;;;1.33;0.47;;;;;;;;;;4976268;28;20743;-62
2022/03/07 12:50:38;;;;;;;2.05;0.73;;;;;;;;;;4959351;28;20025;-62
2022/03/07 12:53:04;;;;;;;1.00;0.50;;;;;;;;;;4987360;28;20056;-62
2022/03/07 12:55:31;;;;;;;4.53;0.68;;;;;;;;;;4973400;28;20103;-62
2022/03/07 12:57:59;;;;;;;1.10;0.50;;;;;;;;;;4959910;28;20057;-63
2022/03/07 13:00:27;;;;;;;5.03;0.60;;;;;;;;;;4972853;28;20042;-62
2022/03/07 13:02:55;;;;;;;0.70;0.40;;;;;;;;;;4970568;28;20026;-63
2022/03/07 13:05:23;;;;;;;2.17;0.82;;;;;;;;;;4973759;28;20180;-62
2022/03/07 13:07:54;;;;;;;1.98;0.50;;;;;;;;;;4991006;28;20045;-62
2022/03/07 13:10:21;;;;;;;0.93;0.40;;;;;;;;;;4986922;28;20064;-62
2022/03/07 13:12:46;;;;;;;3.13;0.65;;;;;;;;;;4975148;28;20132;-62
2022/03/07 13:15:16;;;;;;;1.13;0.50;;;;;;;;;;4970451;28;20708;-62
2022/03/07 13:17:44;;;;;;;2.63;0.80;;;;;;;;;;4962020;28;20528;-62
2022/03/07 13:20:10;;;;;;;2.63;0.73;;;;;;;;;;4972337;28;20042;-62
2022/03/07 13:22:39;;;;;;;4.15;1.02;;;;;;;;;;4958721;28;20038;-62
2022/03/07 13:25:04;;;;;;;0.82;0.70;;;;;;;;;;4950717;28;20041;-62
2022/03/07 13:27:43;;;;;;;2.20;1.00;;;;;;;;;;4973570;28;20044;-62
2022/03/07 13:30:10;;;;;;;2.22;0.50;;;;;;;;;;4973217;28;20026;-61
2022/03/07 13:32:39;;;;;;;2.55;0.77;;;;;;;;;;4972513;28;20038;-62
2022/03/07 13:35:05;;;;;;;3.60;0.70;;;;;;;;;;4971118;28;20461;-62
2022/03/07 13:37:46;;;;;;;4.75;0.90;;;;;;;;;;4970772;28;20053;-62
2022/03/07 13:40:15;;;;;;;2.15;0.70;;;;;;;;;;4972630;28;20100;-62
2022/03/07 13:42:45;;;;;;;0.93;0.43;;;;;;;;;;4971098;28;20113;-62
2022/03/07 13:45:15;;;;;;;2.78;0.70;;;;;;;;;;4974565;28;20057;-62
2022/03/07 13:47:43;;;;;;;1.77;0.88;;;;;;;;;;4977725;28;20030;-63
2022/03/07 13:50:12;;;;;;;1.83;1.00;;;;;;;;;;4973488;28;20030;-63
2022/03/07 13:52:41;;;;;;;1.25;0.70;;;;;;;;;;4975873;28;20022;-62
2022/03/07 13:55:13;;;;;;;2.28;1.27;;;;;;;;;;4977361;28;20081;-62
2022/03/07 13:57:39;;;;;;;1.70;0.85;;;;;;;;;;4989165;28;20035;-62
2022/03/07 14:00:18;;;;;;;2.25;0.80;;;;;;;;;;4974040;28;20032;-62
2022/03/07 14:02:50;;;;;;;3.50;0.85;;;;;;;;;;4973151;28;20470;-63
2022/03/07 14:05:17;;;;;;;1.65;0.82;;;;;;;;;;4972849;28;20034;-63
2022/03/07 14:07:55;;;;;;;2.20;1.02;;;;;;;;;;4972112;28;20037;-62
2022/03/07 14:10:21;;;;;;;2.13;0.45;;;;;;;;;;4973066;28;20027;-63
2022/03/07 14:12:50;;;;;;;7.25;1.58;;;;;;;;;;4972184;28;20902;-62
2022/03/07 14:15:24;;;;;;;4.28;0.57;;;;;;;;;;4973470;28;20034;-62
2022/03/07 14:17:55;;;;;;;1.83;0.82;;;;;;;;;;4980720;28;20092;-62
2022/03/07 14:20:21;;;;;;;0.90;0.63;;;;;;;;;;4964316;28;20034;-63
2022/03/07 14:22:49;;;;;;;3.58;1.30;;;;;;;;;;4977475;28;20034;-63
2022/03/07 14:25:19;;;;;;;1.38;0.40;;;;;;;;;;4976646;28;20034;-63
2022/03/07 14:27:47;;;;;;;0.98;0.50;;;;;;;;;;4962389;28;20916;-62
2022/03/07 14:30:13;;;;;;;3.30;0.77;;;;;;;;;;4963376;28;20706;-62
2022/03/07 14:32:39;;;;;;;1.08;0.68;;;;;;;;;;4977117;28;20030;-63
2022/03/07 14:35:05;;;;;;;1.30;0.40;;;;;;;;;;4959518;28;20041;-62
2022/03/07 14:37:32;;;;;;;1.17;0.47;;;;;;;;;;4976315;28;20084;-62
2022/03/07 14:40:00;;;;;;;0.35;0.30;;;;;;;;;;4976919;28;20529;-62
2022/03/07 14:42:26;;;;;;;7.43;3.63;;;;;;;;;;4990021;28;20482;-62
2022/03/07 14:44:52;;;;;;;0.85;0.57;;;;;;;;;;4990278;28;20038;-62
2022/03/07 14:47:21;;;;;;;0.55;0.40;;;;;;;;;;4975707;28;20034;-61
2022/03/07 14:49:50;;;;;;;1.08;0.60;;;;;;;;;;4977011;28;20061;-64
2022/03/07 14:52:21;;;;;;;1.13;0.63;;;;;;;;;;4990552;28;20072;-63
2022/03/07 14:54:49;;;;;;;1.27;0.82;;;;;;;;;;4973838;28;20042;-62
2022/03/07 14:57:15;;;;;;;0.60;0.57;;;;;;;;;;4959492;28;20023;-64
2022/03/07 14:59:41;;;;;;;0.52;0.50;;;;;;;;;;4991946;28;20500;-62
2022/03/07 15:02:09;;;;;;;0.52;0.38;;;;;;;;;;4977190;28;20026;-62
2022/03/07 15:04:34;;;;;;;1.40;0.63;;;;;;;;;;4975084;28;21050;-62